createdAt,value
2023-02-07T00:00:26.858Z,1.77
2023-02-07T00:05:54.038Z,2.90
2023-02-07T00:11:23.883Z,1.67
2023-02-07T00:16:50.032Z,1.03
2023-02-07T00:22:11.069Z,0.85
2023-02-07T00:27:40.867Z,1.50
2023-02-07T00:33:01.817Z,0.97
2023-02-07T00:38:29.123Z,1.47
2023-02-07T00:43:52.074Z,1.30
2023-02-07T00:54:38.997Z,1.60
2023-02-07T01:00:07.804Z,1.57
2023-02-07T01:05:27.896Z,2.80
2023-02-07T01:10:55.065Z,1.73
2023-02-07T01:16:18.177Z,2.77
2023-02-07T01:21:46.216Z,3.03
2023-02-07T01:27:05.784Z,1.73
2023-02-07T01:32:34.805Z,4.20
2023-02-07T01:37:54.782Z,3.50
2023-02-07T01:43:26.857Z,3.13
2023-02-07T01:48:52.784Z,2.77
2023-02-07T01:54:20.782Z,2.93
2023-02-07T01:59:43.014Z,2.50
2023-02-07T02:05:17.796Z,1.97
2023-02-07T02:10:39.915Z,4.37
2023-02-07T02:16:18.684Z,1.87
2023-02-07T02:22:27.847Z,2.40
2023-02-07T02:28:19.603Z,1.50
2023-02-07T02:34:00.870Z,1.30
2023-02-07T02:39:36.583Z,1.40
2023-02-07T02:45:03.928Z,2.60
2023-02-07T02:50:34.738Z,1.23
2023-02-07T02:56:08.723Z,1.97
2023-02-07T03:07:07.141Z,1.52
2023-02-07T03:12:37.930Z,3.28
2023-02-07T03:18:05.066Z,3.13
2023-02-07T03:23:47.842Z,3.07
2023-02-07T03:29:18.956Z,1.90
2023-02-07T03:34:48.185Z,1.73
2023-02-07T03:40:23.370Z,2.10
2023-02-07T03:45:43.899Z,2.27
2023-02-07T03:51:09.686Z,2.00
2023-02-07T03:56:31.620Z,1.85
2023-02-07T04:01:57.686Z,2.00
2023-02-07T04:07:17.698Z,3.28
2023-02-07T04:12:46.654Z,2.40
2023-02-07T04:18:06.630Z,3.67
2023-02-07T04:23:39.684Z,2.67
2023-02-07T04:29:11.388Z,2.90
2023-02-07T04:34:35.606Z,1.70
2023-02-07T04:40:07.654Z,2.23
2023-02-07T04:45:30.758Z,3.63
2023-02-07T04:50:56.692Z,3.90
2023-02-07T04:56:17.121Z,2.90
2023-02-07T05:01:46.654Z,3.13
2023-02-07T05:07:07.450Z,2.77
2023-02-07T05:12:35.963Z,2.73
2023-02-07T05:18:02.553Z,1.93
2023-02-07T05:23:34.306Z,2.13
2023-02-07T05:29:11.634Z,4.20
2023-02-07T05:34:46.352Z,3.30
2023-02-07T05:40:13.415Z,4.43
2023-02-07T05:45:46.823Z,2.50
2023-02-07T05:51:15.897Z,3.40
2023-02-07T05:56:48.464Z,3.20
2023-02-07T06:02:14.588Z,3.03
2023-02-07T06:07:51.877Z,2.03
2023-02-07T06:18:50.667Z,3.73
2023-02-07T06:24:20.844Z,4.23
2023-02-07T06:29:54.797Z,3.00
2023-02-07T06:35:21.554Z,2.97
2023-02-07T06:40:58.494Z,2.90
2023-02-07T06:46:24.918Z,4.30
2023-02-07T06:51:57.778Z,3.53
2023-02-07T06:57:27.544Z,3.10
2023-02-07T07:03:00.696Z,2.60
2023-02-07T07:08:27.389Z,2.57
2023-02-07T07:14:03.890Z,5.13
2023-02-07T07:19:33.324Z,2.63
2023-02-07T07:25:05.749Z,4.67
2023-02-07T07:30:35.573Z,4.63
2023-02-07T07:36:19.662Z,6.20
2023-02-07T07:41:53.803Z,5.23
2023-02-07T07:47:23.696Z,5.27
2023-02-07T07:52:55.943Z,5.40
2023-02-07T07:58:22.510Z,6.10
2023-02-07T08:03:59.084Z,4.20
2023-02-07T08:09:25.622Z,4.53
2023-02-07T08:14:56.292Z,4.30
2023-02-07T08:20:23.969Z,4.60
2023-02-07T08:25:56.073Z,3.27
2023-02-07T08:31:21.994Z,3.33
2023-02-07T08:37:04.052Z,3.43
2023-02-07T08:42:35.193Z,2.80
2023-02-07T08:48:00.997Z,2.07
2023-02-07T08:53:40.930Z,2.60
2023-02-07T08:59:06.289Z,2.40
2023-02-07T09:04:38.707Z,2.10
2023-02-07T09:10:07.866Z,3.00
2023-02-07T09:15:34.532Z,2.50
2023-02-07T09:20:55.489Z,4.65
2023-02-07T09:26:28.378Z,2.80
2023-02-07T09:31:48.528Z,3.20
2023-02-07T09:37:21.414Z,3.23
2023-02-07T09:43:02.928Z,2.77
2023-02-07T09:48:32.788Z,5.77
2023-02-07T09:53:57.403Z,2.30
2023-02-07T09:59:33.455Z,3.77
2023-02-07T10:04:54.477Z,4.05
2023-02-07T10:10:13.420Z,2.57
2023-02-07T10:15:57.338Z,2.13
2023-02-07T10:21:30.498Z,3.50
2023-02-07T10:27:05.217Z,2.47
2023-02-07T10:32:38.091Z,2.73
2023-02-07T10:38:12.816Z,2.15
2023-02-07T10:43:48.720Z,1.53
2023-02-07T10:49:30.144Z,3.47
2023-02-07T10:55:11.968Z,3.07
2023-02-07T11:00:49.498Z,2.10
2023-02-07T11:06:21.448Z,2.87
2023-02-07T11:11:55.850Z,3.00
2023-02-07T11:17:23.697Z,2.30
2023-02-07T11:23:00.513Z,3.20
2023-02-07T11:28:27.578Z,1.38
2023-02-07T11:34:01.482Z,2.87
2023-02-07T11:39:39.366Z,3.90
2023-02-07T11:45:19.442Z,1.63
2023-02-07T11:56:23.645Z,2.70
2023-02-07T12:01:56.585Z,2.00
2023-02-07T12:07:25.414Z,2.60
2023-02-07T12:13:04.569Z,2.17
2023-02-07T12:18:46.445Z,2.67
2023-02-07T12:24:24.398Z,3.23
2023-02-07T12:30:01.288Z,3.40
2023-02-07T12:35:41.135Z,2.47
2023-02-07T12:41:22.441Z,1.57
2023-02-07T12:47:12.556Z,3.13
2023-02-07T12:52:52.889Z,3.57
2023-02-07T12:58:27.953Z,2.77
2023-02-07T13:04:20.184Z,1.83
2023-02-07T13:09:52.599Z,2.60
2023-02-07T13:15:33.024Z,1.40
2023-02-07T13:21:12.818Z,1.40
2023-02-07T13:26:47.087Z,1.40
2023-02-07T13:32:13.861Z,2.87
2023-02-07T13:38:03.114Z,1.50
2023-02-07T13:43:34.391Z,2.50
2023-02-07T13:49:09.312Z,1.27
2023-02-07T13:54:44.307Z,2.27
2023-02-07T14:00:35.273Z,3.17
2023-02-07T14:06:01.617Z,2.43
2023-02-07T14:11:46.304Z,2.20
2023-02-07T14:17:16.870Z,0.97
2023-02-07T14:22:41.186Z,1.03
2023-02-07T14:28:37.986Z,2.80
2023-02-07T14:34:29.422Z,4.67
2023-02-07T14:40:00.452Z,3.05
2023-02-07T14:45:21.364Z,3.13
2023-02-07T14:51:02.220Z,2.57
2023-02-07T14:56:23.268Z,3.07
2023-02-07T15:01:50.176Z,0.80
2023-02-07T15:07:12.269Z,2.17
2023-02-07T15:12:38.214Z,0.75
2023-02-07T15:17:58.214Z,3.27
2023-02-07T15:23:27.396Z,2.47
2023-02-07T15:28:48.286Z,2.50
2023-02-07T15:34:16.229Z,1.83
2023-02-07T15:39:39.319Z,0.90
2023-02-07T15:45:23.981Z,1.40
2023-02-07T15:50:46.888Z,0.65
2023-02-07T16:01:42.231Z,1.27
2023-02-07T16:07:11.196Z,2.07
2023-02-07T16:13:03.175Z,1.33
2023-02-07T16:18:47.197Z,0.32
2023-02-07T16:24:10.209Z,0.30
2023-02-07T16:29:39.136Z,0.27
2023-02-07T16:35:01.145Z,1.00
2023-02-07T16:40:29.331Z,0.30
2023-02-07T16:45:52.326Z,0.43
2023-02-07T16:51:18.110Z,0.80
2023-02-07T16:56:43.838Z,2.43
2023-02-07T17:02:16.833Z,0.87
2023-02-07T17:07:37.119Z,0.23
2023-02-07T17:13:05.879Z,0.43
2023-02-07T17:18:31.268Z,0.80
2023-02-07T17:23:57.154Z,0.50
2023-02-07T17:29:17.179Z,1.43
2023-02-07T17:34:47.104Z,0.20
2023-02-07T17:40:07.301Z,1.03
2023-02-07T17:45:40.278Z,0.47
2023-02-07T17:51:14.498Z,0.67
2023-02-07T17:56:42.610Z,0.90
2023-02-07T18:02:15.805Z,0.60
2023-02-07T18:07:43.972Z,1.10
2023-02-07T18:13:17.191Z,0.93
2023-02-07T18:18:43.300Z,0.43
2023-02-07T18:24:19.054Z,0.87
2023-02-07T18:29:45.279Z,0.70
2023-02-07T18:35:19.222Z,0.90
2023-02-07T18:40:45.763Z,0.80
2023-02-07T18:46:27.664Z,0.10
2023-02-07T18:51:58.702Z,0.90
2023-02-07T18:57:29.401Z,1.03
2023-02-07T19:03:05.817Z,0.27
2023-02-07T19:08:32.152Z,0.87
2023-02-07T19:14:09.021Z,0.73
2023-02-07T19:19:37.499Z,1.00
2023-02-07T19:25:12.223Z,0.43
2023-02-07T19:30:42.632Z,0.63
2023-02-07T19:36:20.452Z,0.97
2023-02-07T19:41:49.456Z,0.20
2023-02-07T19:47:34.192Z,0.63
2023-02-07T19:53:08.286Z,0.60
2023-02-07T19:58:35.135Z,0.60
2023-02-07T20:04:13.091Z,0.10
2023-02-07T20:09:41.208Z,0.40
2023-02-07T20:15:15.273Z,0.40
2023-02-07T20:20:46.582Z,0.10
2023-02-07T20:26:23.985Z,0.20
2023-02-07T20:31:51.436Z,0.80
2023-02-07T20:37:29.504Z,0.60
2023-02-07T20:42:56.345Z,0.87
2023-02-07T20:48:31.317Z,0.87
2023-02-07T20:54:06.366Z,0.47
2023-02-07T20:59:43.217Z,0.30
2023-02-07T21:05:10.317Z,0.33
2023-02-07T21:10:55.263Z,0.90
2023-02-07T21:16:30.483Z,0.50
2023-02-07T21:21:57.392Z,0.77
2023-02-07T21:27:35.271Z,0.83
2023-02-07T21:33:02.128Z,0.97
2023-02-07T21:38:35.198Z,1.27
2023-02-07T22:13:28.449Z,0.60
2023-02-07T22:18:59.997Z,1.33
2023-02-07T22:24:27.683Z,0.37
2023-02-07T22:30:07.177Z,1.73
2023-02-07T22:35:32.160Z,1.50
2023-02-07T22:41:05.027Z,0.73
2023-02-07T22:46:36.063Z,0.20
2023-02-07T22:52:07.748Z,0.63
2023-02-07T22:57:33.596Z,0.93
2023-02-07T23:03:10.101Z,1.33
2023-02-07T23:08:35.041Z,1.67
2023-02-07T23:14:13.090Z,1.53
2023-02-07T23:19:47.703Z,1.77
2023-02-07T23:25:15.851Z,1.20
2023-02-07T23:30:49.864Z,0.90
2023-02-07T23:36:19.985Z,0.67
2023-02-07T23:41:52.178Z,0.70
2023-02-07T23:47:17.755Z,1.47
2023-02-07T23:52:52.984Z,0.87
2023-02-07T23:58:19.430Z,2.15
